sensor_id;sensor_type;location;lat;lon;timestamp;P1;durP1;ratioP1;P2;durP2;ratioP2
22697;SDS011;11516;51.612;7.510;2023-04-19T00:00:41;15.73;;;13.23;;
22697;SDS011;11516;51.612;7.510;2023-04-19T00:03:07;16.90;;;13.75;;
22697;SDS011;11516;51.612;7.510;2023-04-19T00:05:34;14.18;;;12.75;;
22697;SDS011;11516;51.612;7.510;2023-04-19T00:07:59;15.00;;;13.43;;
22697;SDS011;11516;51.612;7.510;2023-04-19T00:10:25;15.97;;;13.23;;
22697;SDS011;11516;51.612;7.510;2023-04-19T00:12:51;17.67;;;13.15;;
22697;SDS011;11516;51.612;7.510;2023-04-19T00:15:17;15.35;;;13.18;;
22697;SDS011;11516;51.612;7.510;2023-04-19T00:17:42;14.75;;;13.07;;
22697;SDS011;11516;51.612;7.510;2023-04-19T00:20:08;14.52;;;13.02;;
22697;SDS011;11516;51.612;7.510;2023-04-19T00:22:35;14.73;;;13.10;;
22697;SDS011;11516;51.612;7.510;2023-04-19T00:25:01;14.98;;;13.38;;
22697;SDS011;11516;51.612;7.510;2023-04-19T00:27:26;15.60;;;12.98;;
22697;SDS011;11516;51.612;7.510;2023-04-19T00:29:52;14.83;;;13.10;;
22697;SDS011;11516;51.612;7.510;2023-04-19T00:32:17;15.10;;;13.17;;
22697;SDS011;11516;51.612;7.510;2023-04-19T00:34:43;16.77;;;13.10;;
22697;SDS011;11516;51.612;7.510;2023-04-19T00:37:09;16.10;;;13.02;;
22697;SDS011;11516;51.612;7.510;2023-04-19T00:39:35;15.85;;;13.45;;
22697;SDS011;11516;51.612;7.510;2023-04-19T00:42:01;15.00;;;13.05;;
22697;SDS011;11516;51.612;7.510;2023-04-19T00:44:27;15.23;;;13.27;;
22697;SDS011;11516;51.612;7.510;2023-04-19T00:46:52;17.67;;;12.98;;
22697;SDS011;11516;51.612;7.510;2023-04-19T00:49:19;16.52;;;13.13;;
22697;SDS011;11516;51.612;7.510;2023-04-19T00:51:46;16.13;;;13.15;;
22697;SDS011;11516;51.612;7.510;2023-04-19T00:54:12;15.43;;;12.55;;
22697;SDS011;11516;51.612;7.510;2023-04-19T00:56:38;14.00;;;12.50;;
22697;SDS011;11516;51.612;7.510;2023-04-19T00:59:04;14.57;;;12.40;;
22697;SDS011;11516;51.612;7.510;2023-04-19T01:01:30;13.40;;;11.50;;
22697;SDS011;11516;51.612;7.510;2023-04-19T01:03:57;14.90;;;11.55;;
22697;SDS011;11516;51.612;7.510;2023-04-19T01:06:24;12.48;;;10.48;;
22697;SDS011;11516;51.612;7.510;2023-04-19T01:08:51;11.18;;;9.82;;
22697;SDS011;11516;51.612;7.510;2023-04-19T01:11:17;12.27;;;10.35;;
22697;SDS011;11516;51.612;7.510;2023-04-19T01:13:43;12.80;;;9.43;;
22697;SDS011;11516;51.612;7.510;2023-04-19T01:16:08;11.47;;;9.20;;
22697;SDS011;11516;51.612;7.510;2023-04-19T01:18:34;11.13;;;8.75;;
22697;SDS011;11516;51.612;7.510;2023-04-19T01:21:02;11.10;;;8.40;;
22697;SDS011;11516;51.612;7.510;2023-04-19T01:23:27;9.98;;;8.25;;
22697;SDS011;11516;51.612;7.510;2023-04-19T01:25:53;9.50;;;7.95;;
22697;SDS011;11516;51.612;7.510;2023-04-19T01:28:19;8.23;;;7.30;;
22697;SDS011;11516;51.612;7.510;2023-04-19T01:30:44;8.53;;;6.80;;
22697;SDS011;11516;51.612;7.510;2023-04-19T01:33:10;8.10;;;6.47;;
22697;SDS011;11516;51.612;7.510;2023-04-19T01:35:35;8.43;;;6.73;;
22697;SDS011;11516;51.612;7.510;2023-04-19T01:38:01;7.78;;;6.60;;
22697;SDS011;11516;51.612;7.510;2023-04-19T01:40:26;6.75;;;6.05;;
22697;SDS011;11516;51.612;7.510;2023-04-19T01:42:52;9.23;;;6.38;;
22697;SDS011;11516;51.612;7.510;2023-04-19T01:45:17;6.77;;;6.07;;
22697;SDS011;11516;51.612;7.510;2023-04-19T01:47:43;8.00;;;6.20;;
22697;SDS011;11516;51.612;7.510;2023-04-19T01:50:09;7.47;;;6.28;;
22697;SDS011;11516;51.612;7.510;2023-04-19T01:52:35;8.27;;;6.10;;
22697;SDS011;11516;51.612;7.510;2023-04-19T01:55:00;6.87;;;6.07;;
22697;SDS011;11516;51.612;7.510;2023-04-19T01:57:26;7.90;;;6.50;;
22697;SDS011;11516;51.612;7.510;2023-04-19T01:59:54;8.87;;;6.67;;
22697;SDS011;11516;51.612;7.510;2023-04-19T02:02:20;7.35;;;6.47;;
22697;SDS011;11516;51.612;7.510;2023-04-19T02:04:45;8.52;;;6.75;;
22697;SDS011;11516;51.612;7.510;2023-04-19T02:07:11;8.88;;;6.65;;
22697;SDS011;11516;51.612;7.510;2023-04-19T02:09:37;7.72;;;6.45;;
22697;SDS011;11516;51.612;7.510;2023-04-19T02:12:03;7.60;;;5.93;;
22697;SDS011;11516;51.612;7.510;2023-04-19T02:14:29;10.32;;;7.35;;
22697;SDS011;11516;51.612;7.510;2023-04-19T02:16:55;7.40;;;5.95;;
22697;SDS011;11516;51.612;7.510;2023-04-19T02:19:20;8.40;;;6.10;;
22697;SDS011;11516;51.612;7.510;2023-04-19T02:21:46;7.40;;;6.03;;
22697;SDS011;11516;51.612;7.510;2023-04-19T02:24:12;6.70;;;5.65;;
22697;SDS011;11516;51.612;7.510;2023-04-19T02:26:38;6.27;;;5.67;;
22697;SDS011;11516;51.612;7.510;2023-04-19T02:29:04;6.72;;;6.00;;
22697;SDS011;11516;51.612;7.510;2023-04-19T02:31:30;7.18;;;5.72;;
22697;SDS011;11516;51.612;7.510;2023-04-19T02:33:55;6.95;;;5.72;;
22697;SDS011;11516;51.612;7.510;2023-04-19T02:36:21;6.60;;;5.45;;
22697;SDS011;11516;51.612;7.510;2023-04-19T02:38:46;6.93;;;5.50;;
22697;SDS011;11516;51.612;7.510;2023-04-19T02:41:12;7.30;;;5.80;;
22697;SDS011;11516;51.612;7.510;2023-04-19T02:43:38;5.95;;;5.22;;
22697;SDS011;11516;51.612;7.510;2023-04-19T02:46:03;6.28;;;5.07;;
22697;SDS011;11516;51.612;7.510;2023-04-19T02:48:29;6.10;;;5.50;;
22697;SDS011;11516;51.612;7.510;2023-04-19T02:50:54;6.37;;;5.40;;
22697;SDS011;11516;51.612;7.510;2023-04-19T02:53:20;6.37;;;5.07;;
22697;SDS011;11516;51.612;7.510;2023-04-19T02:55:45;7.23;;;5.40;;
22697;SDS011;11516;51.612;7.510;2023-04-19T02:58:11;6.30;;;5.00;;
22697;SDS011;11516;51.612;7.510;2023-04-19T03:00:37;7.20;;;5.53;;
22697;SDS011;11516;51.612;7.510;2023-04-19T03:03:03;6.50;;;5.00;;
22697;SDS011;11516;51.612;7.510;2023-04-19T03:05:28;6.10;;;5.32;;
22697;SDS011;11516;51.612;7.510;2023-04-19T03:07:54;5.95;;;5.07;;
22697;SDS011;11516;51.612;7.510;2023-04-19T03:10:19;6.70;;;5.17;;
22697;SDS011;11516;51.612;7.510;2023-04-19T03:12:45;5.45;;;4.90;;
22697;SDS011;11516;51.612;7.510;2023-04-19T03:15:11;5.43;;;4.82;;
22697;SDS011;11516;51.612;7.510;2023-04-19T03:17:36;6.10;;;5.15;;
22697;SDS011;11516;51.612;7.510;2023-04-19T03:20:02;6.80;;;5.37;;
22697;SDS011;11516;51.612;7.510;2023-04-19T03:22:34;6.07;;;5.37;;
22697;SDS011;11516;51.612;7.510;2023-04-19T03:25:00;7.85;;;5.32;;
22697;SDS011;11516;51.612;7.510;2023-04-19T03:27:26;7.40;;;5.27;;
22697;SDS011;11516;51.612;7.510;2023-04-19T03:29:51;6.30;;;5.47;;
22697;SDS011;11516;51.612;7.510;2023-04-19T03:32:17;6.97;;;5.10;;
22697;SDS011;11516;51.612;7.510;2023-04-19T03:34:42;7.00;;;5.73;;
22697;SDS011;11516;51.612;7.510;2023-04-19T03:37:08;6.40;;;5.70;;
22697;SDS011;11516;51.612;7.510;2023-04-19T03:39:33;7.78;;;5.88;;
22697;SDS011;11516;51.612;7.510;2023-04-19T03:41:59;7.30;;;5.40;;
22697;SDS011;11516;51.612;7.510;2023-04-19T03:44:25;6.63;;;5.90;;
22697;SDS011;11516;51.612;7.510;2023-04-19T03:46:51;7.05;;;5.82;;
22697;SDS011;11516;51.612;7.510;2023-04-19T03:49:16;7.13;;;5.40;;
22697;SDS011;11516;51.612;7.510;2023-04-19T03:51:42;8.57;;;6.00;;
22697;SDS011;11516;51.612;7.510;2023-04-19T03:54:07;6.87;;;5.50;;
22697;SDS011;11516;51.612;7.510;2023-04-19T03:56:33;6.67;;;5.97;;
22697;SDS011;11516;51.612;7.510;2023-04-19T03:58:58;7.75;;;6.00;;
22697;SDS011;11516;51.612;7.510;2023-04-19T04:01:24;7.15;;;6.00;;
22697;SDS011;11516;51.612;7.510;2023-04-19T04:03:50;7.35;;;5.90;;
22697;SDS011;11516;51.612;7.510;2023-04-19T04:06:16;7.47;;;6.23;;
22697;SDS011;11516;51.612;7.510;2023-04-19T04:08:42;6.97;;;6.25;;
22697;SDS011;11516;51.612;7.510;2023-04-19T04:11:07;7.72;;;6.13;;
22697;SDS011;11516;51.612;7.510;2023-04-19T04:13:33;8.00;;;6.20;;
22697;SDS011;11516;51.612;7.510;2023-04-19T04:15:58;7.17;;;6.30;;
22697;SDS011;11516;51.612;7.510;2023-04-19T04:18:24;7.07;;;6.38;;
22697;SDS011;11516;51.612;7.510;2023-04-19T04:20:52;8.35;;;6.45;;
22697;SDS011;11516;51.612;7.510;2023-04-19T04:23:18;8.52;;;6.22;;
22697;SDS011;11516;51.612;7.510;2023-04-19T04:25:45;8.75;;;6.55;;
22697;SDS011;11516;51.612;7.510;2023-04-19T04:28:11;9.33;;;6.37;;
22697;SDS011;11516;51.612;7.510;2023-04-19T04:30:37;7.38;;;6.40;;
22697;SDS011;11516;51.612;7.510;2023-04-19T04:33:04;9.53;;;6.93;;
22697;SDS011;11516;51.612;7.510;2023-04-19T04:35:30;8.73;;;6.70;;
22697;SDS011;11516;51.612;7.510;2023-04-19T04:37:55;9.57;;;6.90;;
22697;SDS011;11516;51.612;7.510;2023-04-19T04:40:21;8.80;;;6.50;;
22697;SDS011;11516;51.612;7.510;2023-04-19T04:42:46;8.13;;;6.67;;
22697;SDS011;11516;51.612;7.510;2023-04-19T04:45:12;7.60;;;6.78;;
22697;SDS011;11516;51.612;7.510;2023-04-19T04:47:38;8.27;;;7.23;;
22697;SDS011;11516;51.612;7.510;2023-04-19T04:50:03;8.07;;;6.87;;
22697;SDS011;11516;51.612;7.510;2023-04-19T04:52:30;9.18;;;6.50;;
22697;SDS011;11516;51.612;7.510;2023-04-19T04:54:55;10.43;;;6.97;;
22697;SDS011;11516;51.612;7.510;2023-04-19T04:57:20;8.65;;;6.82;;
22697;SDS011;11516;51.612;7.510;2023-04-19T04:59:46;8.93;;;7.18;;
22697;SDS011;11516;51.612;7.510;2023-04-19T05:02:12;11.07;;;7.07;;
22697;SDS011;11516;51.612;7.510;2023-04-19T05:04:38;9.02;;;6.97;;
22697;SDS011;11516;51.612;7.510;2023-04-19T05:07:04;8.35;;;6.53;;
22697;SDS011;11516;51.612;7.510;2023-04-19T05:09:30;8.57;;;6.43;;
22697;SDS011;11516;51.612;7.510;2023-04-19T05:11:55;9.23;;;6.40;;
22697;SDS011;11516;51.612;7.510;2023-04-19T05:14:21;9.75;;;5.85;;
22697;SDS011;11516;51.612;7.510;2023-04-19T05:16:47;8.43;;;6.07;;
22697;SDS011;11516;51.612;7.510;2023-04-19T05:19:12;8.47;;;5.83;;
22697;SDS011;11516;51.612;7.510;2023-04-19T05:21:38;8.67;;;5.50;;
22697;SDS011;11516;51.612;7.510;2023-04-19T05:24:03;9.10;;;5.43;;
22697;SDS011;11516;51.612;7.510;2023-04-19T05:26:29;9.43;;;5.20;;
22697;SDS011;11516;51.612;7.510;2023-04-19T05:28:56;8.40;;;5.20;;
22697;SDS011;11516;51.612;7.510;2023-04-19T05:31:21;6.78;;;4.72;;
22697;SDS011;11516;51.612;7.510;2023-04-19T05:33:47;7.07;;;4.65;;
22697;SDS011;11516;51.612;7.510;2023-04-19T05:36:12;8.80;;;4.90;;
22697;SDS011;11516;51.612;7.510;2023-04-19T05:38:38;7.70;;;5.23;;
22697;SDS011;11516;51.612;7.510;2023-04-19T05:41:03;7.80;;;4.57;;
22697;SDS011;11516;51.612;7.510;2023-04-19T05:43:29;7.50;;;4.97;;
22697;SDS011;11516;51.612;7.510;2023-04-19T05:45:55;8.68;;;5.18;;
22697;SDS011;11516;51.612;7.510;2023-04-19T05:48:21;7.50;;;4.90;;
22697;SDS011;11516;51.612;7.510;2023-04-19T05:50:46;6.13;;;4.50;;
22697;SDS011;11516;51.612;7.510;2023-04-19T05:53:12;6.07;;;4.10;;
22697;SDS011;11516;51.612;7.510;2023-04-19T05:55:37;9.10;;;4.43;;
22697;SDS011;11516;51.612;7.510;2023-04-19T05:58:03;7.13;;;4.30;;
22697;SDS011;11516;51.612;7.510;2023-04-19T06:00:28;7.05;;;4.25;;
22697;SDS011;11516;51.612;7.510;2023-04-19T06:02:54;6.97;;;4.30;;
22697;SDS011;11516;51.612;7.510;2023-04-19T06:05:20;6.70;;;4.55;;
22697;SDS011;11516;51.612;7.510;2023-04-19T06:07:46;7.20;;;4.63;;
22697;SDS011;11516;51.612;7.510;2023-04-19T06:10:12;6.57;;;4.50;;
22697;SDS011;11516;51.612;7.510;2023-04-19T06:12:39;7.93;;;4.90;;
22697;SDS011;11516;51.612;7.510;2023-04-19T06:15:05;7.13;;;4.63;;
22697;SDS011;11516;51.612;7.510;2023-04-19T06:17:31;6.28;;;4.38;;
22697;SDS011;11516;51.612;7.510;2023-04-19T06:19:56;13.67;;;8.47;;
22697;SDS011;11516;51.612;7.510;2023-04-19T06:22:22;6.67;;;4.10;;
22697;SDS011;11516;51.612;7.510;2023-04-19T06:24:47;10.00;;;4.23;;
22697;SDS011;11516;51.612;7.510;2023-04-19T06:27:14;5.95;;;3.95;;
22697;SDS011;11516;51.612;7.510;2023-04-19T06:29:40;7.05;;;4.03;;
22697;SDS011;11516;51.612;7.510;2023-04-19T06:32:06;6.90;;;4.10;;
22697;SDS011;11516;51.612;7.510;2023-04-19T06:34:32;5.72;;;3.85;;
22697;SDS011;11516;51.612;7.510;2023-04-19T06:36:58;4.82;;;3.50;;
22697;SDS011;11516;51.612;7.510;2023-04-19T06:39:24;5.97;;;3.92;;
22697;SDS011;11516;51.612;7.510;2023-04-19T06:41:49;5.07;;;3.83;;
22697;SDS011;11516;51.612;7.510;2023-04-19T06:44:15;5.78;;;4.07;;
22697;SDS011;11516;51.612;7.510;2023-04-19T06:46:40;6.90;;;3.80;;
22697;SDS011;11516;51.612;7.510;2023-04-19T06:49:06;6.03;;;3.50;;
22697;SDS011;11516;51.612;7.510;2023-04-19T06:51:32;6.10;;;3.60;;
22697;SDS011;11516;51.612;7.510;2023-04-19T06:53:57;5.40;;;3.70;;
22697;SDS011;11516;51.612;7.510;2023-04-19T06:56:43;4.90;;;3.40;;
22697;SDS011;11516;51.612;7.510;2023-04-19T06:59:11;7.50;;;4.03;;
22697;SDS011;11516;51.612;7.510;2023-04-19T07:01:44;5.65;;;3.70;;
22697;SDS011;11516;51.612;7.510;2023-04-19T07:04:11;6.30;;;3.90;;
22697;SDS011;11516;51.612;7.510;2023-04-19T07:06:37;8.93;;;3.90;;
22697;SDS011;11516;51.612;7.510;2023-04-19T07:09:03;6.13;;;4.00;;
22697;SDS011;11516;51.612;7.510;2023-04-19T07:11:30;5.25;;;3.60;;
22697;SDS011;11516;51.612;7.510;2023-04-19T07:13:56;6.43;;;3.83;;
22697;SDS011;11516;51.612;7.510;2023-04-19T07:16:21;6.07;;;4.13;;
22697;SDS011;11516;51.612;7.510;2023-04-19T07:18:47;7.20;;;3.85;;
22697;SDS011;11516;51.612;7.510;2023-04-19T07:21:13;7.73;;;4.30;;
22697;SDS011;11516;51.612;7.510;2023-04-19T07:23:39;6.00;;;3.60;;
22697;SDS011;11516;51.612;7.510;2023-04-19T07:26:05;6.00;;;3.80;;
22697;SDS011;11516;51.612;7.510;2023-04-19T07:28:31;5.47;;;3.65;;
22697;SDS011;11516;51.612;7.510;2023-04-19T07:30:57;6.03;;;4.00;;
22697;SDS011;11516;51.612;7.510;2023-04-19T07:33:24;5.80;;;3.83;;
22697;SDS011;11516;51.612;7.510;2023-04-19T07:35:50;7.00;;;3.50;;
22697;SDS011;11516;51.612;7.510;2023-04-19T07:38:16;6.18;;;4.03;;
22697;SDS011;11516;51.612;7.510;2023-04-19T07:40:42;8.02;;;3.83;;
22697;SDS011;11516;51.612;7.510;2023-04-19T07:43:07;5.57;;;3.77;;
22697;SDS011;11516;51.612;7.510;2023-04-19T07:45:33;7.07;;;4.15;;
22697;SDS011;11516;51.612;7.510;2023-04-19T07:47:59;5.00;;;3.88;;
22697;SDS011;11516;51.612;7.510;2023-04-19T07:50:24;7.53;;;3.85;;
22697;SDS011;11516;51.612;7.510;2023-04-19T07:52:51;6.30;;;3.70;;
22697;SDS011;11516;51.612;7.510;2023-04-19T07:55:16;5.80;;;3.47;;
22697;SDS011;11516;51.612;7.510;2023-04-19T07:57:42;4.93;;;3.50;;
22697;SDS011;11516;51.612;7.510;2023-04-19T08:00:12;7.78;;;3.63;;
22697;SDS011;11516;51.612;7.510;2023-04-19T08:02:39;4.80;;;3.20;;
22697;SDS011;11516;51.612;7.510;2023-04-19T08:05:07;6.55;;;3.45;;
22697;SDS011;11516;51.612;7.510;2023-04-19T08:07:33;4.63;;;2.70;;
22697;SDS011;11516;51.612;7.510;2023-04-19T08:09:59;3.70;;;2.70;;
22697;SDS011;11516;51.612;7.510;2023-04-19T08:12:24;2.80;;;2.15;;
22697;SDS011;11516;51.612;7.510;2023-04-19T08:14:50;9.20;;;2.40;;
22697;SDS011;11516;51.612;7.510;2023-04-19T08:17:15;4.07;;;2.40;;
22697;SDS011;11516;51.612;7.510;2023-04-19T08:19:44;4.95;;;2.30;;
22697;SDS011;11516;51.612;7.510;2023-04-19T08:22:10;5.50;;;2.50;;
22697;SDS011;11516;51.612;7.510;2023-04-19T08:24:35;3.10;;;2.50;;
22697;SDS011;11516;51.612;7.510;2023-04-19T08:27:01;4.22;;;2.60;;
22697;SDS011;11516;51.612;7.510;2023-04-19T08:29:26;4.20;;;2.50;;
22697;SDS011;11516;51.612;7.510;2023-04-19T08:31:52;3.47;;;2.40;;
22697;SDS011;11516;51.612;7.510;2023-04-19T08:34:17;4.60;;;2.50;;
22697;SDS011;11516;51.612;7.510;2023-04-19T08:36:43;4.47;;;2.50;;
22697;SDS011;11516;51.612;7.510;2023-04-19T08:39:10;4.13;;;3.17;;
22697;SDS011;11516;51.612;7.510;2023-04-19T08:41:36;4.97;;;2.35;;
22697;SDS011;11516;51.612;7.510;2023-04-19T08:44:03;5.50;;;2.85;;
22697;SDS011;11516;51.612;7.510;2023-04-19T08:46:30;3.65;;;2.47;;
22697;SDS011;11516;51.612;7.510;2023-04-19T08:48:56;3.55;;;2.35;;
22697;SDS011;11516;51.612;7.510;2023-04-19T08:51:23;2.67;;;2.17;;
22697;SDS011;11516;51.612;7.510;2023-04-19T08:53:50;4.40;;;2.58;;
22697;SDS011;11516;51.612;7.510;2023-04-19T08:56:18;2.78;;;2.47;;
22697;SDS011;11516;51.612;7.510;2023-04-19T08:58:45;5.53;;;2.60;;
22697;SDS011;11516;51.612;7.510;2023-04-19T09:01:11;3.08;;;2.40;;
22697;SDS011;11516;51.612;7.510;2023-04-19T09:03:41;4.68;;;2.88;;
22697;SDS011;11516;51.612;7.510;2023-04-19T09:06:10;4.13;;;3.10;;
22697;SDS011;11516;51.612;7.510;2023-04-19T09:08:36;5.90;;;2.78;;
22697;SDS011;11516;51.612;7.510;2023-04-19T09:11:03;5.30;;;3.30;;
22697;SDS011;11516;51.612;7.510;2023-04-19T09:13:28;4.10;;;2.80;;
22697;SDS011;11516;51.612;7.510;2023-04-19T09:15:54;6.22;;;3.60;;
22697;SDS011;11516;51.612;7.510;2023-04-19T09:18:24;7.43;;;3.72;;
22697;SDS011;11516;51.612;7.510;2023-04-19T09:20:50;4.10;;;3.10;;
22697;SDS011;11516;51.612;7.510;2023-04-19T09:23:22;6.53;;;3.38;;
22697;SDS011;11516;51.612;7.510;2023-04-19T09:25:52;4.40;;;3.25;;
22697;SDS011;11516;51.612;7.510;2023-04-19T09:28:18;4.80;;;3.30;;
22697;SDS011;11516;51.612;7.510;2023-04-19T09:30:44;6.03;;;3.30;;
22697;SDS011;11516;51.612;7.510;2023-04-19T09:33:11;5.00;;;3.08;;
22697;SDS011;11516;51.612;7.510;2023-04-19T09:35:40;4.13;;;2.90;;
22697;SDS011;11516;51.612;7.510;2023-04-19T09:38:06;4.05;;;2.72;;
22697;SDS011;11516;51.612;7.510;2023-04-19T09:40:32;4.17;;;2.90;;
22697;SDS011;11516;51.612;7.510;2023-04-19T09:42:58;4.25;;;2.60;;
22697;SDS011;11516;51.612;7.510;2023-04-19T09:45:25;7.83;;;2.27;;
22697;SDS011;11516;51.612;7.510;2023-04-19T09:48:04;6.25;;;2.50;;
22697;SDS011;11516;51.612;7.510;2023-04-19T09:50:33;5.35;;;2.70;;
22697;SDS011;11516;51.612;7.510;2023-04-19T09:53:00;4.07;;;2.58;;
22697;SDS011;11516;51.612;7.510;2023-04-19T09:55:27;3.75;;;2.38;;
22697;SDS011;11516;51.612;7.510;2023-04-19T09:57:52;3.53;;;2.40;;
22697;SDS011;11516;51.612;7.510;2023-04-19T10:00:18;4.90;;;2.40;;
22697;SDS011;11516;51.612;7.510;2023-04-19T10:02:46;5.07;;;2.47;;
22697;SDS011;11516;51.612;7.510;2023-04-19T10:05:19;3.40;;;2.70;;
22697;SDS011;11516;51.612;7.510;2023-04-19T10:07:46;3.05;;;2.67;;
22697;SDS011;11516;51.612;7.510;2023-04-19T10:10:14;3.17;;;2.75;;
22697;SDS011;11516;51.612;7.510;2023-04-19T10:12:41;5.90;;;2.80;;
22697;SDS011;11516;51.612;7.510;2023-04-19T10:15:12;5.72;;;3.17;;
22697;SDS011;11516;51.612;7.510;2023-04-19T10:17:38;4.93;;;3.05;;
22697;SDS011;11516;51.612;7.510;2023-04-19T10:20:09;5.25;;;3.40;;
22697;SDS011;11516;51.612;7.510;2023-04-19T10:22:41;5.40;;;3.50;;
22697;SDS011;11516;51.612;7.510;2023-04-19T10:25:07;4.80;;;3.00;;
22697;SDS011;11516;51.612;7.510;2023-04-19T10:27:37;4.90;;;3.15;;
22697;SDS011;11516;51.612;7.510;2023-04-19T10:30:03;4.28;;;3.33;;
22697;SDS011;11516;51.612;7.510;2023-04-19T10:32:38;4.70;;;3.10;;
22697;SDS011;11516;51.612;7.510;2023-04-19T10:35:24;4.45;;;2.92;;
22697;SDS011;11516;51.612;7.510;2023-04-19T10:40:52;4.30;;;3.25;;
22697;SDS011;11516;51.612;7.510;2023-04-19T10:43:24;5.63;;;3.00;;
22697;SDS011;11516;51.612;7.510;2023-04-19T10:45:51;4.20;;;2.80;;
22697;SDS011;11516;51.612;7.510;2023-04-19T10:50:56;4.30;;;3.03;;
22697;SDS011;11516;51.612;7.510;2023-04-19T10:56:10;8.27;;;2.97;;
22697;SDS011;11516;51.612;7.510;2023-04-19T11:06:35;3.97;;;3.13;;
22697;SDS011;11516;51.612;7.510;2023-04-19T11:09:02;4.38;;;3.20;;
22697;SDS011;11516;51.612;7.510;2023-04-19T11:11:33;4.72;;;3.30;;
22697;SDS011;11516;51.612;7.510;2023-04-19T11:13:59;4.85;;;3.40;;
22697;SDS011;11516;51.612;7.510;2023-04-19T11:16:27;5.80;;;3.60;;
22697;SDS011;11516;51.612;7.510;2023-04-19T11:18:52;3.43;;;3.03;;
22697;SDS011;11516;51.612;7.510;2023-04-19T11:21:20;5.32;;;3.67;;
22697;SDS011;11516;51.612;7.510;2023-04-19T11:23:46;6.17;;;3.90;;
22697;SDS011;11516;51.612;7.510;2023-04-19T11:26:14;8.00;;;3.83;;
22697;SDS011;11516;51.612;7.510;2023-04-19T11:28:40;5.63;;;3.60;;
22697;SDS011;11516;51.612;7.510;2023-04-19T11:31:05;5.85;;;3.70;;
22697;SDS011;11516;51.612;7.510;2023-04-19T11:33:32;4.03;;;3.50;;
22697;SDS011;11516;51.612;7.510;2023-04-19T11:36:01;3.97;;;3.57;;
22697;SDS011;11516;51.612;7.510;2023-04-19T11:38:27;6.72;;;3.90;;
22697;SDS011;11516;51.612;7.510;2023-04-19T11:40:57;5.43;;;3.50;;
22697;SDS011;11516;51.612;7.510;2023-04-19T11:43:33;5.68;;;3.55;;
22697;SDS011;11516;51.612;7.510;2023-04-19T11:48:31;6.38;;;3.80;;
22697;SDS011;11516;51.612;7.510;2023-04-19T11:50:57;3.80;;;3.50;;
22697;SDS011;11516;51.612;7.510;2023-04-19T11:53:24;5.67;;;3.73;;
22697;SDS011;11516;51.612;7.510;2023-04-19T11:58:31;4.60;;;3.42;;
22697;SDS011;11516;51.612;7.510;2023-04-19T12:01:04;5.68;;;3.45;;
22697;SDS011;11516;51.612;7.510;2023-04-19T12:03:33;4.80;;;3.42;;
22697;SDS011;11516;51.612;7.510;2023-04-19T12:06:00;7.13;;;3.50;;
22697;SDS011;11516;51.612;7.510;2023-04-19T12:08:36;4.50;;;3.38;;
22697;SDS011;11516;51.612;7.510;2023-04-19T12:11:03;5.23;;;3.53;;
22697;SDS011;11516;51.612;7.510;2023-04-19T12:13:30;4.80;;;3.17;;
22697;SDS011;11516;51.612;7.510;2023-04-19T12:15:57;5.18;;;3.42;;
22697;SDS011;11516;51.612;7.510;2023-04-19T12:18:23;6.13;;;3.77;;
22697;SDS011;11516;51.612;7.510;2023-04-19T12:20:50;4.35;;;3.35;;
22697;SDS011;11516;51.612;7.510;2023-04-19T12:23:17;5.63;;;3.40;;
22697;SDS011;11516;51.612;7.510;2023-04-19T12:25:44;7.05;;;3.60;;
22697;SDS011;11516;51.612;7.510;2023-04-19T12:28:10;5.77;;;3.13;;
22697;SDS011;11516;51.612;7.510;2023-04-19T12:30:37;6.68;;;3.45;;
22697;SDS011;11516;51.612;7.510;2023-04-19T12:33:04;6.00;;;3.40;;
22697;SDS011;11516;51.612;7.510;2023-04-19T12:35:30;5.15;;;4.07;;
22697;SDS011;11516;51.612;7.510;2023-04-19T12:37:57;5.00;;;3.40;;
22697;SDS011;11516;51.612;7.510;2023-04-19T12:40:23;5.70;;;3.70;;
22697;SDS011;11516;51.612;7.510;2023-04-19T12:42:50;5.68;;;3.30;;
22697;SDS011;11516;51.612;7.510;2023-04-19T12:45:16;5.28;;;3.78;;
22697;SDS011;11516;51.612;7.510;2023-04-19T12:47:42;4.40;;;3.30;;
22697;SDS011;11516;51.612;7.510;2023-04-19T12:50:09;5.80;;;3.40;;
22697;SDS011;11516;51.612;7.510;2023-04-19T12:52:34;5.70;;;3.40;;
22697;SDS011;11516;51.612;7.510;2023-04-19T12:55:00;4.20;;;3.10;;
22697;SDS011;11516;51.612;7.510;2023-04-19T12:57:26;4.75;;;3.20;;
22697;SDS011;11516;51.612;7.510;2023-04-19T12:59:52;4.07;;;3.08;;
22697;SDS011;11516;51.612;7.510;2023-04-19T13:02:17;4.25;;;2.97;;
22697;SDS011;11516;51.612;7.510;2023-04-19T13:04:43;5.30;;;2.95;;
22697;SDS011;11516;51.612;7.510;2023-04-19T13:07:09;6.28;;;3.35;;
22697;SDS011;11516;51.612;7.510;2023-04-19T13:09:34;3.90;;;2.88;;
22697;SDS011;11516;51.612;7.510;2023-04-19T13:12:00;3.42;;;2.60;;
22697;SDS011;11516;51.612;7.510;2023-04-19T13:14:26;5.07;;;2.80;;
22697;SDS011;11516;51.612;7.510;2023-04-19T13:16:52;4.93;;;2.90;;
22697;SDS011;11516;51.612;7.510;2023-04-19T13:19:18;5.45;;;3.33;;
22697;SDS011;11516;51.612;7.510;2023-04-19T13:21:43;3.97;;;2.60;;
22697;SDS011;11516;51.612;7.510;2023-04-19T13:24:09;3.65;;;2.78;;
22697;SDS011;11516;51.612;7.510;2023-04-19T13:26:35;4.50;;;2.80;;
22697;SDS011;11516;51.612;7.510;2023-04-19T13:29:00;3.42;;;2.60;;
22697;SDS011;11516;51.612;7.510;2023-04-19T13:31:26;3.45;;;2.70;;
22697;SDS011;11516;51.612;7.510;2023-04-19T13:33:52;5.80;;;2.43;;
22697;SDS011;11516;51.612;7.510;2023-04-19T13:36:18;3.95;;;2.63;;
22697;SDS011;11516;51.612;7.510;2023-04-19T13:38:45;3.83;;;2.90;;
22697;SDS011;11516;51.612;7.510;2023-04-19T13:41:11;4.90;;;3.20;;
22697;SDS011;11516;51.612;7.510;2023-04-19T13:43:36;5.03;;;3.00;;
22697;SDS011;11516;51.612;7.510;2023-04-19T13:46:02;4.47;;;2.70;;
22697;SDS011;11516;51.612;7.510;2023-04-19T13:48:28;3.20;;;2.80;;
22697;SDS011;11516;51.612;7.510;2023-04-19T13:50:54;3.33;;;2.70;;
22697;SDS011;11516;51.612;7.510;2023-04-19T13:53:20;4.30;;;2.60;;
22697;SDS011;11516;51.612;7.510;2023-04-19T13:55:45;3.35;;;2.60;;
22697;SDS011;11516;51.612;7.510;2023-04-19T13:58:11;4.50;;;2.70;;
22697;SDS011;11516;51.612;7.510;2023-04-19T14:00:36;3.83;;;2.70;;
22697;SDS011;11516;51.612;7.510;2023-04-19T14:03:02;3.70;;;2.72;;
22697;SDS011;11516;51.612;7.510;2023-04-19T14:05:28;3.97;;;2.90;;
22697;SDS011;11516;51.612;7.510;2023-04-19T14:07:54;5.30;;;2.60;;
22697;SDS011;11516;51.612;7.510;2023-04-19T14:10:19;3.97;;;3.10;;
22697;SDS011;11516;51.612;7.510;2023-04-19T14:12:45;4.23;;;2.70;;
22697;SDS011;11516;51.612;7.510;2023-04-19T14:15:11;5.35;;;3.08;;
22697;SDS011;11516;51.612;7.510;2023-04-19T14:17:37;4.32;;;2.45;;
22697;SDS011;11516;51.612;7.510;2023-04-19T14:20:03;4.57;;;2.90;;
22697;SDS011;11516;51.612;7.510;2023-04-19T14:22:30;2.90;;;2.58;;
22697;SDS011;11516;51.612;7.510;2023-04-19T14:24:56;4.07;;;2.80;;
22697;SDS011;11516;51.612;7.510;2023-04-19T14:27:22;4.83;;;2.70;;
22697;SDS011;11516;51.612;7.510;2023-04-19T14:29:48;5.75;;;2.80;;
22697;SDS011;11516;51.612;7.510;2023-04-19T14:32:13;3.33;;;2.80;;
22697;SDS011;11516;51.612;7.510;2023-04-19T14:34:39;17.48;;;3.70;;
22697;SDS011;11516;51.612;7.510;2023-04-19T14:37:05;3.93;;;2.73;;
22697;SDS011;11516;51.612;7.510;2023-04-19T14:39:30;2.75;;;2.38;;
22697;SDS011;11516;51.612;7.510;2023-04-19T14:41:56;2.55;;;2.30;;
22697;SDS011;11516;51.612;7.510;2023-04-19T14:44:22;3.50;;;2.35;;
22697;SDS011;11516;51.612;7.510;2023-04-19T14:46:47;3.25;;;2.30;;
22697;SDS011;11516;51.612;7.510;2023-04-19T14:49:13;3.83;;;2.10;;
22697;SDS011;11516;51.612;7.510;2023-04-19T14:51:39;2.33;;;2.10;;
22697;SDS011;11516;51.612;7.510;2023-04-19T14:54:09;2.63;;;2.20;;
22697;SDS011;11516;51.612;7.510;2023-04-19T14:56:37;6.00;;;2.60;;
22697;SDS011;11516;51.612;7.510;2023-04-19T14:59:06;2.43;;;2.23;;
22697;SDS011;11516;51.612;7.510;2023-04-19T15:01:34;7.50;;;2.90;;